sensor_id;sensor_type;location;lat;lon;timestamp;temperature;humidity
43697;DHT22;29301;47.620;19.560;2023-08-30T00:00:41;20.40;99.80
43697;DHT22;29301;47.620;19.560;2023-08-30T00:03:07;20.30;99.90
43697;DHT22;29301;47.620;19.560;2023-08-30T00:05:33;20.40;99.90
43697;DHT22;29301;47.620;19.560;2023-08-30T00:07:59;20.40;99.90
43697;DHT22;29301;47.620;19.560;2023-08-30T00:10:25;20.40;99.90
43697;DHT22;29301;47.620;19.560;2023-08-30T00:12:50;20.50;99.90
43697;DHT22;29301;47.620;19.560;2023-08-30T00:15:16;20.60;99.90
43697;DHT22;29301;47.620;19.560;2023-08-30T00:17:42;20.60;99.90
43697;DHT22;29301;47.620;19.560;2023-08-30T00:20:09;20.60;99.90
43697;DHT22;29301;47.620;19.560;2023-08-30T00:22:34;20.60;99.60
43697;DHT22;29301;47.620;19.560;2023-08-30T00:25:01;20.70;99.40
43697;DHT22;29301;47.620;19.560;2023-08-30T00:27:27;20.80;99.00
43697;DHT22;29301;47.620;19.560;2023-08-30T00:29:52;20.80;98.60
43697;DHT22;29301;47.620;19.560;2023-08-30T00:32:18;20.80;97.90
43697;DHT22;29301;47.620;19.560;2023-08-30T00:34:44;20.70;98.00
43697;DHT22;29301;47.620;19.560;2023-08-30T00:37:09;20.70;98.80
43697;DHT22;29301;47.620;19.560;2023-08-30T00:39:38;20.70;98.90
43697;DHT22;29301;47.620;19.560;2023-08-30T00:42:05;20.60;99.00
43697;DHT22;29301;47.620;19.560;2023-08-30T00:44:35;20.60;98.90
43697;DHT22;29301;47.620;19.560;2023-08-30T00:47:02;20.50;98.60
43697;DHT22;29301;47.620;19.560;2023-08-30T00:49:31;20.60;99.50
43697;DHT22;29301;47.620;19.560;2023-08-30T00:51:59;20.50;99.50
43697;DHT22;29301;47.620;19.560;2023-08-30T00:54:26;20.60;99.10
43697;DHT22;29301;47.620;19.560;2023-08-30T00:56:52;20.70;98.60
43697;DHT22;29301;47.620;19.560;2023-08-30T00:59:18;20.60;98.50
43697;DHT22;29301;47.620;19.560;2023-08-30T01:01:44;20.60;98.60
43697;DHT22;29301;47.620;19.560;2023-08-30T01:04:10;20.50;98.80
43697;DHT22;29301;47.620;19.560;2023-08-30T01:06:36;20.60;98.50
43697;DHT22;29301;47.620;19.560;2023-08-30T01:09:02;20.50;98.30
43697;DHT22;29301;47.620;19.560;2023-08-30T01:11:50;20.60;98.30
43697;DHT22;29301;47.620;19.560;2023-08-30T01:14:24;20.60;98.50
43697;DHT22;29301;47.620;19.560;2023-08-30T01:16:51;20.60;98.00
43697;DHT22;29301;47.620;19.560;2023-08-30T01:22:02;20.50;97.70
43697;DHT22;29301;47.620;19.560;2023-08-30T01:24:37;20.60;97.40
43697;DHT22;29301;47.620;19.560;2023-08-30T01:27:14;20.60;97.10
43697;DHT22;29301;47.620;19.560;2023-08-30T01:29:43;20.60;96.90
43697;DHT22;29301;47.620;19.560;2023-08-30T01:32:10;20.60;96.70
43697;DHT22;29301;47.620;19.560;2023-08-30T01:34:38;20.60;96.40
43697;DHT22;29301;47.620;19.560;2023-08-30T01:37:08;20.50;96.30
43697;DHT22;29301;47.620;19.560;2023-08-30T01:39:39;20.40;97.10
43697;DHT22;29301;47.620;19.560;2023-08-30T01:42:07;20.40;97.20
43697;DHT22;29301;47.620;19.560;2023-08-30T01:44:33;20.30;96.80
43697;DHT22;29301;47.620;19.560;2023-08-30T01:47:00;20.20;97.40
43697;DHT22;29301;47.620;19.560;2023-08-30T01:49:28;20.10;97.40
43697;DHT22;29301;47.620;19.560;2023-08-30T01:51:54;20.00;97.10
43697;DHT22;29301;47.620;19.560;2023-08-30T01:54:20;19.90;97.50
43697;DHT22;29301;47.620;19.560;2023-08-30T01:56:47;19.80;97.60
43697;DHT22;29301;47.620;19.560;2023-08-30T01:59:13;19.70;98.60
43697;DHT22;29301;47.620;19.560;2023-08-30T02:01:39;19.70;98.00
43697;DHT22;29301;47.620;19.560;2023-08-30T02:04:04;19.70;97.70
43697;DHT22;29301;47.620;19.560;2023-08-30T02:12:12;19.60;97.30
43697;DHT22;29301;47.620;19.560;2023-08-30T02:14:39;19.60;97.20
43697;DHT22;29301;47.620;19.560;2023-08-30T02:17:06;19.50;97.10
43697;DHT22;29301;47.620;19.560;2023-08-30T02:19:33;19.40;97.80
43697;DHT22;29301;47.620;19.560;2023-08-30T02:21:59;19.40;98.00
43697;DHT22;29301;47.620;19.560;2023-08-30T02:24:25;19.40;97.90
43697;DHT22;29301;47.620;19.560;2023-08-30T02:26:50;19.40;97.40
43697;DHT22;29301;47.620;19.560;2023-08-30T02:29:16;19.30;97.40
43697;DHT22;29301;47.620;19.560;2023-08-30T02:31:42;19.40;97.20
43697;DHT22;29301;47.620;19.560;2023-08-30T02:34:07;19.30;97.20
43697;DHT22;29301;47.620;19.560;2023-08-30T02:36:33;19.20;97.40
43697;DHT22;29301;47.620;19.560;2023-08-30T02:38:58;19.30;97.30
43697;DHT22;29301;47.620;19.560;2023-08-30T02:41:24;19.20;96.90
43697;DHT22;29301;47.620;19.560;2023-08-30T02:43:50;19.20;97.30
43697;DHT22;29301;47.620;19.560;2023-08-30T02:46:15;19.10;96.90
43697;DHT22;29301;47.620;19.560;2023-08-30T02:48:41;19.10;97.60
43697;DHT22;29301;47.620;19.560;2023-08-30T02:51:07;19.10;98.10
43697;DHT22;29301;47.620;19.560;2023-08-30T02:53:32;19.10;98.00
43697;DHT22;29301;47.620;19.560;2023-08-30T02:55:58;19.10;98.60
43697;DHT22;29301;47.620;19.560;2023-08-30T02:58:24;19.10;98.90
43697;DHT22;29301;47.620;19.560;2023-08-30T03:00:49;19.00;99.10
43697;DHT22;29301;47.620;19.560;2023-08-30T03:03:15;18.90;99.60
43697;DHT22;29301;47.620;19.560;2023-08-30T03:05:40;19.00;99.90
43697;DHT22;29301;47.620;19.560;2023-08-30T03:08:06;19.00;99.90
43697;DHT22;29301;47.620;19.560;2023-08-30T03:10:32;18.90;99.90
43697;DHT22;29301;47.620;19.560;2023-08-30T03:12:58;19.00;99.90
43697;DHT22;29301;47.620;19.560;2023-08-30T03:15:23;19.00;99.90
43697;DHT22;29301;47.620;19.560;2023-08-30T03:17:49;19.10;99.90
43697;DHT22;29301;47.620;19.560;2023-08-30T03:20:15;19.00;99.70
43697;DHT22;29301;47.620;19.560;2023-08-30T03:22:41;19.00;99.90
43697;DHT22;29301;47.620;19.560;2023-08-30T03:25:07;18.90;99.90
43697;DHT22;29301;47.620;19.560;2023-08-30T03:27:34;18.90;99.90
43697;DHT22;29301;47.620;19.560;2023-08-30T03:30:01;18.90;99.90
43697;DHT22;29301;47.620;19.560;2023-08-30T03:32:27;19.00;99.90
43697;DHT22;29301;47.620;19.560;2023-08-30T03:34:53;19.00;99.90
43697;DHT22;29301;47.620;19.560;2023-08-30T03:37:19;18.90;99.90
43697;DHT22;29301;47.620;19.560;2023-08-30T03:39:44;19.00;99.90
43697;DHT22;29301;47.620;19.560;2023-08-30T03:42:10;19.00;99.90
43697;DHT22;29301;47.620;19.560;2023-08-30T03:44:37;19.00;99.90
43697;DHT22;29301;47.620;19.560;2023-08-30T03:47:03;19.00;99.90
43697;DHT22;29301;47.620;19.560;2023-08-30T03:49:28;19.00;99.90
43697;DHT22;29301;47.620;19.560;2023-08-30T03:51:55;19.00;99.90
43697;DHT22;29301;47.620;19.560;2023-08-30T03:54:20;19.00;99.80
43697;DHT22;29301;47.620;19.560;2023-08-30T03:56:46;18.90;99.80
43697;DHT22;29301;47.620;19.560;2023-08-30T03:59:12;18.90;99.90
43697;DHT22;29301;47.620;19.560;2023-08-30T04:01:38;18.90;99.90
43697;DHT22;29301;47.620;19.560;2023-08-30T04:04:04;18.90;99.90
43697;DHT22;29301;47.620;19.560;2023-08-30T04:06:30;19.00;99.90
43697;DHT22;29301;47.620;19.560;2023-08-30T04:08:56;19.10;99.90
43697;DHT22;29301;47.620;19.560;2023-08-30T04:11:21;19.10;99.90
43697;DHT22;29301;47.620;19.560;2023-08-30T04:13:47;19.10;99.90
43697;DHT22;29301;47.620;19.560;2023-08-30T04:16:13;19.10;99.90
43697;DHT22;29301;47.620;19.560;2023-08-30T04:18:38;19.10;99.80
43697;DHT22;29301;47.620;19.560;2023-08-30T04:21:04;19.10;99.80
43697;DHT22;29301;47.620;19.560;2023-08-30T04:23:31;19.10;99.40
43697;DHT22;29301;47.620;19.560;2023-08-30T04:25:57;19.10;99.60
43697;DHT22;29301;47.620;19.560;2023-08-30T04:28:23;19.10;99.90
43697;DHT22;29301;47.620;19.560;2023-08-30T04:30:48;19.10;99.90
43697;DHT22;29301;47.620;19.560;2023-08-30T04:33:14;19.10;99.90
43697;DHT22;29301;47.620;19.560;2023-08-30T04:35:40;19.10;99.90
43697;DHT22;29301;47.620;19.560;2023-08-30T04:38:05;19.00;99.90
43697;DHT22;29301;47.620;19.560;2023-08-30T04:40:31;18.90;99.90
43697;DHT22;29301;47.620;19.560;2023-08-30T04:43:00;18.90;99.90
43697;DHT22;29301;47.620;19.560;2023-08-30T04:45:26;19.00;99.90
43697;DHT22;29301;47.620;19.560;2023-08-30T04:47:53;19.00;99.90
43697;DHT22;29301;47.620;19.560;2023-08-30T04:50:19;19.00;99.90
43697;DHT22;29301;47.620;19.560;2023-08-30T04:52:45;19.00;99.90
43697;DHT22;29301;47.620;19.560;2023-08-30T04:55:11;19.00;99.90
43697;DHT22;29301;47.620;19.560;2023-08-30T04:57:36;18.90;99.90
43697;DHT22;29301;47.620;19.560;2023-08-30T05:00:03;18.90;99.90
43697;DHT22;29301;47.620;19.560;2023-08-30T05:02:30;18.90;99.90
43697;DHT22;29301;47.620;19.560;2023-08-30T05:04:56;18.90;99.90
43697;DHT22;29301;47.620;19.560;2023-08-30T05:07:22;18.90;99.90
43697;DHT22;29301;47.620;19.560;2023-08-30T05:09:48;19.00;99.90
43697;DHT22;29301;47.620;19.560;2023-08-30T05:12:13;19.00;99.90
43697;DHT22;29301;47.620;19.560;2023-08-30T05:14:39;19.00;99.90
43697;DHT22;29301;47.620;19.560;2023-08-30T05:17:06;19.00;99.90
43697;DHT22;29301;47.620;19.560;2023-08-30T05:19:32;19.00;99.90
43697;DHT22;29301;47.620;19.560;2023-08-30T05:21:58;19.10;99.90
43697;DHT22;29301;47.620;19.560;2023-08-30T05:24:24;19.10;99.90
43697;DHT22;29301;47.620;19.560;2023-08-30T05:26:51;19.10;99.90
43697;DHT22;29301;47.620;19.560;2023-08-30T05:29:17;19.20;99.90
43697;DHT22;29301;47.620;19.560;2023-08-30T05:31:43;19.20;99.90
43697;DHT22;29301;47.620;19.560;2023-08-30T05:34:10;19.20;99.90
43697;DHT22;29301;47.620;19.560;2023-08-30T05:36:36;19.20;99.90
43697;DHT22;29301;47.620;19.560;2023-08-30T05:39:02;19.40;99.90
43697;DHT22;29301;47.620;19.560;2023-08-30T05:41:29;19.50;99.90
43697;DHT22;29301;47.620;19.560;2023-08-30T05:43:55;19.50;99.90
43697;DHT22;29301;47.620;19.560;2023-08-30T05:46:21;19.50;99.90
43697;DHT22;29301;47.620;19.560;2023-08-30T05:48:47;19.60;99.90
43697;DHT22;29301;47.620;19.560;2023-08-30T05:51:12;19.60;99.90
43697;DHT22;29301;47.620;19.560;2023-08-30T05:53:38;19.60;99.20
43697;DHT22;29301;47.620;19.560;2023-08-30T05:56:04;19.60;99.90
43697;DHT22;29301;47.620;19.560;2023-08-30T05:58:29;19.80;99.50
43697;DHT22;29301;47.620;19.560;2023-08-30T06:00:56;19.80;98.10
43697;DHT22;29301;47.620;19.560;2023-08-30T06:03:22;19.70;97.80
43697;DHT22;29301;47.620;19.560;2023-08-30T06:05:48;19.70;97.60
43697;DHT22;29301;47.620;19.560;2023-08-30T06:08:17;19.70;97.40
43697;DHT22;29301;47.620;19.560;2023-08-30T06:10:43;19.70;97.70
43697;DHT22;29301;47.620;19.560;2023-08-30T06:13:09;19.70;97.10
43697;DHT22;29301;47.620;19.560;2023-08-30T06:15:35;19.70;97.10
43697;DHT22;29301;47.620;19.560;2023-08-30T06:18:03;19.70;97.40
43697;DHT22;29301;47.620;19.560;2023-08-30T06:20:29;19.60;97.80
43697;DHT22;29301;47.620;19.560;2023-08-30T06:22:54;19.70;98.50
43697;DHT22;29301;47.620;19.560;2023-08-30T06:25:20;19.80;98.90
43697;DHT22;29301;47.620;19.560;2023-08-30T06:27:56;20.00;98.50
43697;DHT22;29301;47.620;19.560;2023-08-30T06:30:22;20.10;98.30
43697;DHT22;29301;47.620;19.560;2023-08-30T06:32:48;20.20;97.80
43697;DHT22;29301;47.620;19.560;2023-08-30T06:35:15;20.30;96.70
43697;DHT22;29301;47.620;19.560;2023-08-30T06:37:40;20.40;96.00
43697;DHT22;29301;47.620;19.560;2023-08-30T06:40:06;20.40;95.80
43697;DHT22;29301;47.620;19.560;2023-08-30T06:42:32;20.50;94.80
43697;DHT22;29301;47.620;19.560;2023-08-30T06:44:58;20.50;94.30
43697;DHT22;29301;47.620;19.560;2023-08-30T06:47:24;20.50;94.30
43697;DHT22;29301;47.620;19.560;2023-08-30T06:49:49;20.50;94.10
43697;DHT22;29301;47.620;19.560;2023-08-30T06:52:15;20.60;94.10
43697;DHT22;29301;47.620;19.560;2023-08-30T06:54:40;20.60;94.30
43697;DHT22;29301;47.620;19.560;2023-08-30T06:57:06;20.70;94.40
43697;DHT22;29301;47.620;19.560;2023-08-30T06:59:32;20.80;94.10
43697;DHT22;29301;47.620;19.560;2023-08-30T07:01:58;20.90;93.00
43697;DHT22;29301;47.620;19.560;2023-08-30T07:04:24;21.00;92.80
43697;DHT22;29301;47.620;19.560;2023-08-30T07:06:51;21.10;92.60
43697;DHT22;29301;47.620;19.560;2023-08-30T07:09:16;21.20;91.80
43697;DHT22;29301;47.620;19.560;2023-08-30T07:11:43;21.30;91.00
43697;DHT22;29301;47.620;19.560;2023-08-30T07:14:12;21.30;90.60
43697;DHT22;29301;47.620;19.560;2023-08-30T07:16:39;21.40;90.60
43697;DHT22;29301;47.620;19.560;2023-08-30T07:19:05;21.60;90.20
43697;DHT22;29301;47.620;19.560;2023-08-30T07:21:31;21.70;89.20
43697;DHT22;29301;47.620;19.560;2023-08-30T07:23:56;21.90;87.90
43697;DHT22;29301;47.620;19.560;2023-08-30T07:26:22;22.00;86.00
43697;DHT22;29301;47.620;19.560;2023-08-30T07:28:48;22.20;85.00
43697;DHT22;29301;47.620;19.560;2023-08-30T07:31:13;22.30;83.40
43697;DHT22;29301;47.620;19.560;2023-08-30T07:33:41;22.20;82.10
43697;DHT22;29301;47.620;19.560;2023-08-30T07:36:07;22.20;83.90
43697;DHT22;29301;47.620;19.560;2023-08-30T07:38:33;22.30;83.50
43697;DHT22;29301;47.620;19.560;2023-08-30T07:41:00;22.40;81.50
43697;DHT22;29301;47.620;19.560;2023-08-30T07:43:26;22.60;80.80
43697;DHT22;29301;47.620;19.560;2023-08-30T07:45:52;22.80;79.50
43697;DHT22;29301;47.620;19.560;2023-08-30T07:48:17;23.10;78.10
43697;DHT22;29301;47.620;19.560;2023-08-30T07:50:43;23.20;76.80
43697;DHT22;29301;47.620;19.560;2023-08-30T07:53:09;23.40;80.90
43697;DHT22;29301;47.620;19.560;2023-08-30T07:55:36;23.50;76.60
43697;DHT22;29301;47.620;19.560;2023-08-30T07:58:02;23.50;75.70
43697;DHT22;29301;47.620;19.560;2023-08-30T08:00:31;23.50;75.60
43697;DHT22;29301;47.620;19.560;2023-08-30T08:02:57;23.40;75.60
43697;DHT22;29301;47.620;19.560;2023-08-30T08:05:23;23.20;75.30
43697;DHT22;29301;47.620;19.560;2023-08-30T08:07:52;23.10;76.00
43697;DHT22;29301;47.620;19.560;2023-08-30T08:10:18;23.10;76.30
43697;DHT22;29301;47.620;19.560;2023-08-30T08:12:43;23.30;75.90
43697;DHT22;29301;47.620;19.560;2023-08-30T08:15:09;23.60;74.10
43697;DHT22;29301;47.620;19.560;2023-08-30T08:17:35;23.80;72.20
43697;DHT22;29301;47.620;19.560;2023-08-30T08:20:01;24.00;68.20
43697;DHT22;29301;47.620;19.560;2023-08-30T08:22:27;24.00;68.40
43697;DHT22;29301;47.620;19.560;2023-08-30T08:24:54;23.90;66.90
43697;DHT22;29301;47.620;19.560;2023-08-30T08:27:21;23.70;69.50
43697;DHT22;29301;47.620;19.560;2023-08-30T08:29:47;24.10;70.70
43697;DHT22;29301;47.620;19.560;2023-08-30T08:32:13;24.40;68.70
43697;DHT22;29301;47.620;19.560;2023-08-30T08:34:38;24.40;67.80
43697;DHT22;29301;47.620;19.560;2023-08-30T08:37:04;24.40;67.30
43697;DHT22;29301;47.620;19.560;2023-08-30T08:39:30;24.60;66.80
43697;DHT22;29301;47.620;19.560;2023-08-30T08:41:58;24.70;64.90
43697;DHT22;29301;47.620;19.560;2023-08-30T08:44:26;25.00;64.20
43697;DHT22;29301;47.620;19.560;2023-08-30T08:46:56;25.00;64.10
43697;DHT22;29301;47.620;19.560;2023-08-30T08:49:23;24.90;63.10
43697;DHT22;29301;47.620;19.560;2023-08-30T08:51:53;24.70;60.50
43697;DHT22;29301;47.620;19.560;2023-08-30T08:54:20;24.80;61.30
43697;DHT22;29301;47.620;19.560;2023-08-30T08:56:46;25.00;59.80
43697;DHT22;29301;47.620;19.560;2023-08-30T08:59:12;25.00;60.20
43697;DHT22;29301;47.620;19.560;2023-08-30T09:01:39;24.50;60.40
43697;DHT22;29301;47.620;19.560;2023-08-30T09:04:09;24.50;63.30
43697;DHT22;29301;47.620;19.560;2023-08-30T09:06:36;24.90;63.10
43697;DHT22;29301;47.620;19.560;2023-08-30T09:09:03;25.40;61.60
43697;DHT22;29301;47.620;19.560;2023-08-30T09:11:33;25.60;59.10
43697;DHT22;29301;47.620;19.560;2023-08-30T09:13:59;25.80;59.50
43697;DHT22;29301;47.620;19.560;2023-08-30T09:16:25;25.90;58.20
43697;DHT22;29301;47.620;19.560;2023-08-30T09:18:58;26.20;56.70
43697;DHT22;29301;47.620;19.560;2023-08-30T09:21:24;26.50;55.50
43697;DHT22;29301;47.620;19.560;2023-08-30T09:24:06;26.40;53.80
43697;DHT22;29301;47.620;19.560;2023-08-30T09:26:33;26.40;53.30
43697;DHT22;29301;47.620;19.560;2023-08-30T09:29:05;26.30;53.20
43697;DHT22;29301;47.620;19.560;2023-08-30T09:31:38;26.50;54.50
43697;DHT22;29301;47.620;19.560;2023-08-30T09:34:06;26.40;52.20
43697;DHT22;29301;47.620;19.560;2023-08-30T09:39:05;26.30;53.40
43697;DHT22;29301;47.620;19.560;2023-08-30T09:41:32;26.20;54.00
43697;DHT22;29301;47.620;19.560;2023-08-30T09:44:06;25.80;54.20
43697;DHT22;29301;47.620;19.560;2023-08-30T09:46:42;25.00;53.00
43697;DHT22;29301;47.620;19.560;2023-08-30T09:49:08;24.90;54.20
43697;DHT22;29301;47.620;19.560;2023-08-30T09:51:35;25.10;54.90
43697;DHT22;29301;47.620;19.560;2023-08-30T09:54:04;25.20;55.90
43697;DHT22;29301;47.620;19.560;2023-08-30T09:56:32;25.40;55.90
43697;DHT22;29301;47.620;19.560;2023-08-30T09:58:58;25.50;55.40
43697;DHT22;29301;47.620;19.560;2023-08-30T10:01:27;25.70;55.50
43697;DHT22;29301;47.620;19.560;2023-08-30T10:03:55;25.90;54.10
43697;DHT22;29301;47.620;19.560;2023-08-30T10:06:24;26.00;54.80
43697;DHT22;29301;47.620;19.560;2023-08-30T10:08:52;26.10;52.40
43697;DHT22;29301;47.620;19.560;2023-08-30T10:11:19;25.80;52.30
43697;DHT22;29301;47.620;19.560;2023-08-30T10:13:45;25.80;54.60
43697;DHT22;29301;47.620;19.560;2023-08-30T10:16:18;25.90;55.20
43697;DHT22;29301;47.620;19.560;2023-08-30T10:18:49;26.00;55.20
43697;DHT22;29301;47.620;19.560;2023-08-30T10:21:19;25.90;54.50
43697;DHT22;29301;47.620;19.560;2023-08-30T10:23:48;25.90;55.30
43697;DHT22;29301;47.620;19.560;2023-08-30T10:26:15;25.90;54.80
43697;DHT22;29301;47.620;19.560;2023-08-30T10:28:42;25.90;54.80
43697;DHT22;29301;47.620;19.560;2023-08-30T10:31:09;25.80;54.60
43697;DHT22;29301;47.620;19.560;2023-08-30T10:33:50;25.70;53.70
43697;DHT22;29301;47.620;19.560;2023-08-30T10:36:24;25.60;54.90
43697;DHT22;29301;47.620;19.560;2023-08-30T10:38:51;25.70;54.60
43697;DHT22;29301;47.620;19.560;2023-08-30T10:41:26;25.80;54.50
43697;DHT22;29301;47.620;19.560;2023-08-30T10:43:55;26.00;54.90
43697;DHT22;29301;47.620;19.560;2023-08-30T10:46:33;26.00;54.80
43697;DHT22;29301;47.620;19.560;2023-08-30T10:49:11;26.10;54.00
43697;DHT22;29301;47.620;19.560;2023-08-30T10:51:38;25.80;55.00
43697;DHT22;29301;47.620;19.560;2023-08-30T10:54:14;25.70;55.00
43697;DHT22;29301;47.620;19.560;2023-08-30T10:56:48;25.80;51.90
43697;DHT22;29301;47.620;19.560;2023-08-30T10:59:22;25.70;54.30
43697;DHT22;29301;47.620;19.560;2023-08-30T11:01:49;25.50;54.30
43697;DHT22;29301;47.620;19.560;2023-08-30T11:04:17;25.30;53.80
43697;DHT22;29301;47.620;19.560;2023-08-30T11:06:47;25.20;55.50
43697;DHT22;29301;47.620;19.560;2023-08-30T11:09:21;25.30;54.50
43697;DHT22;29301;47.620;19.560;2023-08-30T11:11:48;25.30;54.10
43697;DHT22;29301;47.620;19.560;2023-08-30T11:14:15;25.40;53.50
43697;DHT22;29301;47.620;19.560;2023-08-30T11:16:42;25.40;55.20
43697;DHT22;29301;47.620;19.560;2023-08-30T11:19:09;25.50;54.20
43697;DHT22;29301;47.620;19.560;2023-08-30T11:21:37;25.60;54.00
43697;DHT22;29301;47.620;19.560;2023-08-30T11:24:05;25.60;53.20
43697;DHT22;29301;47.620;19.560;2023-08-30T11:26:31;25.60;55.00
43697;DHT22;29301;47.620;19.560;2023-08-30T11:28:56;25.80;52.70
43697;DHT22;29301;47.620;19.560;2023-08-30T11:31:23;25.80;51.60
43697;DHT22;29301;47.620;19.560;2023-08-30T11:33:58;25.60;52.20
43697;DHT22;29301;47.620;19.560;2023-08-30T11:36:28;25.60;53.20
43697;DHT22;29301;47.620;19.560;2023-08-30T11:38:54;25.80;52.40
43697;DHT22;29301;47.620;19.560;2023-08-30T11:41:20;25.90;51.60
43697;DHT22;29301;47.620;19.560;2023-08-30T11:43:47;25.90;51.40
43697;DHT22;29301;47.620;19.560;2023-08-30T11:46:13;25.80;49.80
43697;DHT22;29301;47.620;19.560;2023-08-30T11:48:42;25.80;49.50
43697;DHT22;29301;47.620;19.560;2023-08-30T11:51:09;25.80;48.70
43697;DHT22;29301;47.620;19.560;2023-08-30T11:53:35;25.70;48.60
43697;DHT22;29301;47.620;19.560;2023-08-30T11:56:01;25.60;48.40
43697;DHT22;29301;47.620;19.560;2023-08-30T11:58:27;25.70;49.70
43697;DHT22;29301;47.620;19.560;2023-08-30T12:00:54;25.70;48.10
43697;DHT22;29301;47.620;19.560;2023-08-30T12:03:20;25.80;49.30
43697;DHT22;29301;47.620;19.560;2023-08-30T12:05:49;25.60;48.60
43697;DHT22;29301;47.620;19.560;2023-08-30T12:08:33;25.30;50.90
43697;DHT22;29301;47.620;19.560;2023-08-30T12:11:00;25.10;52.10
43697;DHT22;29301;47.620;19.560;2023-08-30T12:13:31;25.30;50.90
43697;DHT22;29301;47.620;19.560;2023-08-30T12:15:59;25.50;50.40
43697;DHT22;29301;47.620;19.560;2023-08-30T12:18:32;25.70;48.50
43697;DHT22;29301;47.620;19.560;2023-08-30T12:21:02;25.80;50.10
43697;DHT22;29301;47.620;19.560;2023-08-30T12:23:32;25.80;49.80
43697;DHT22;29301;47.620;19.560;2023-08-30T12:26:02;25.80;49.00
43697;DHT22;29301;47.620;19.560;2023-08-30T12:28:30;25.70;49.00
43697;DHT22;29301;47.620;19.560;2023-08-30T12:30:57;25.40;50.00
43697;DHT22;29301;47.620;19.560;2023-08-30T12:33:23;25.50;50.40
43697;DHT22;29301;47.620;19.560;2023-08-30T12:35:53;25.50;48.30
43697;DHT22;29301;47.620;19.560;2023-08-30T12:38:19;25.60;47.90
43697;DHT22;29301;47.620;19.560;2023-08-30T12:40:46;25.60;48.00
43697;DHT22;29301;47.620;19.560;2023-08-30T12:43:13;25.50;48.60
43697;DHT22;29301;47.620;19.560;2023-08-30T12:45:42;25.50;50.00
43697;DHT22;29301;47.620;19.560;2023-08-30T12:48:09;25.50;50.10
43697;DHT22;29301;47.620;19.560;2023-08-30T12:50:36;25.40;50.80
43697;DHT22;29301;47.620;19.560;2023-08-30T12:53:02;25.30;51.60
43697;DHT22;29301;47.620;19.560;2023-08-30T12:55:29;25.20;51.30
43697;DHT22;29301;47.620;19.560;2023-08-30T12:57:54;25.20;51.30
43697;DHT22;29301;47.620;19.560;2023-08-30T13:00:21;25.20;50.80
43697;DHT22;29301;47.620;19.560;2023-08-30T13:02:46;25.40;50.60
43697;DHT22;29301;47.620;19.560;2023-08-30T13:05:12;25.30;50.30
43697;DHT22;29301;47.620;19.560;2023-08-30T13:07:38;25.40;50.90
43697;DHT22;29301;47.620;19.560;2023-08-30T13:10:05;25.40;51.50
43697;DHT22;29301;47.620;19.560;2023-08-30T13:12:31;25.50;51.60
43697;DHT22;29301;47.620;19.560;2023-08-30T13:14:57;25.60;51.60
43697;DHT22;29301;47.620;19.560;2023-08-30T13:17:23;25.60;51.10
43697;DHT22;29301;47.620;19.560;2023-08-30T13:19:49;25.60;50.80
43697;DHT22;29301;47.620;19.560;2023-08-30T13:22:15;25.60;50.60
43697;DHT22;29301;47.620;19.560;2023-08-30T13:24:40;25.40;50.80
43697;DHT22;29301;47.620;19.560;2023-08-30T13:27:06;25.00;51.40
43697;DHT22;29301;47.620;19.560;2023-08-30T13:29:32;24.90;52.00
43697;DHT22;29301;47.620;19.560;2023-08-30T13:31:57;24.90;50.90
43697;DHT22;29301;47.620;19.560;2023-08-30T13:34:23;24.90;51.40
43697;DHT22;29301;47.620;19.560;2023-08-30T13:36:49;24.80;51.50
43697;DHT22;29301;47.620;19.560;2023-08-30T13:39:14;24.80;51.60
43697;DHT22;29301;47.620;19.560;2023-08-30T13:41:40;24.90;51.20
43697;DHT22;29301;47.620;19.560;2023-08-30T13:44:06;25.00;50.70
43697;DHT22;29301;47.620;19.560;2023-08-30T13:46:32;25.00;49.50
43697;DHT22;29301;47.620;19.560;2023-08-30T13:48:58;25.00;49.30
43697;DHT22;29301;47.620;19.560;2023-08-30T13:51:26;25.00;49.40
43697;DHT22;29301;47.620;19.560;2023-08-30T13:53:52;25.00;49.80
43697;DHT22;29301;47.620;19.560;2023-08-30T13:56:19;24.90;50.50
43697;DHT22;29301;47.620;19.560;2023-08-30T13:58:45;24.80;51.10
43697;DHT22;29301;47.620;19.560;2023-08-30T14:01:11;24.60;51.80
43697;DHT22;29301;47.620;19.560;2023-08-30T14:03:37;24.40;52.30
43697;DHT22;29301;47.620;19.560;2023-08-30T14:06:03;24.30;52.60
43697;DHT22;29301;47.620;19.560;2023-08-30T14:08:29;24.40;53.10
43697;DHT22;29301;47.620;19.560;2023-08-30T14:10:55;24.50;54.40
43697;DHT22;29301;47.620;19.560;2023-08-30T14:13:21;24.50;54.10
43697;DHT22;29301;47.620;19.560;2023-08-30T14:15:47;24.50;52.80
43697;DHT22;29301;47.620;19.560;2023-08-30T14:18:13;24.60;52.80
43697;DHT22;29301;47.620;19.560;2023-08-30T14:20:40;24.50;53.70
43697;DHT22;29301;47.620;19.560;2023-08-30T14:23:06;24.50;53.90
43697;DHT22;29301;47.620;19.560;2023-08-30T14:25:32;24.40;52.60
43697;DHT22;29301;47.620;19.560;2023-08-30T14:27:57;24.20;53.90
43697;DHT22;29301;47.620;19.560;2023-08-30T14:30:25;24.20;54.20
43697;DHT22;29301;47.620;19.560;2023-08-30T14:32:51;24.20;54.70
43697;DHT22;29301;47.620;19.560;2023-08-30T14:35:17;24.20;54.80
43697;DHT22;29301;47.620;19.560;2023-08-30T14:37:46;24.20;54.70
43697;DHT22;29301;47.620;19.560;2023-08-30T14:40:13;24.20;54.80
43697;DHT22;29301;47.620;19.560;2023-08-30T14:42:39;24.30;54.50
43697;DHT22;29301;47.620;19.560;2023-08-30T14:45:05;24.40;53.70
43697;DHT22;29301;47.620;19.560;2023-08-30T14:47:33;24.30;52.80
43697;DHT22;29301;47.620;19.560;2023-08-30T14:49:59;24.10;53.20
43697;DHT22;29301;47.620;19.560;2023-08-30T14:52:28;24.00;55.30
43697;DHT22;29301;47.620;19.560;2023-08-30T14:54:54;23.80;54.30
43697;DHT22;29301;47.620;19.560;2023-08-30T14:57:19;23.80;55.40
43697;DHT22;29301;47.620;19.560;2023-08-30T14:59:46;23.80;55.40
43697;DHT22;29301;47.620;19.560;2023-08-30T15:02:12;23.80;55.10
43697;DHT22;29301;47.620;19.560;2023-08-30T15:04:39;23.70;54.90
43697;DHT22;29301;47.620;19.560;2023-08-30T15:07:04;23.50;54.80
43697;DHT22;29301;47.620;19.560;2023-08-30T15:09:30;23.60;55.90
43697;DHT22;29301;47.620;19.560;2023-08-30T15:11:56;23.70;55.80
43697;DHT22;29301;47.620;19.560;2023-08-30T15:14:24;23.80;55.30
43697;DHT22;29301;47.620;19.560;2023-08-30T15:16:49;23.90;54.80
43697;DHT22;29301;47.620;19.560;2023-08-30T15:19:15;24.00;53.90
43697;DHT22;29301;47.620;19.560;2023-08-30T15:21:41;24.10;53.00
43697;DHT22;29301;47.620;19.560;2023-08-30T15:24:07;24.10;53.40